createdAt,value
2023-03-21T00:00:44.059Z,9.80
2023-03-21T00:03:11.510Z,9.80
2023-03-21T00:05:51.841Z,9.80
2023-03-21T00:08:19.918Z,9.80
2023-03-21T00:10:47.081Z,9.80
2023-03-21T00:13:15.650Z,9.80
2023-03-21T00:16:04.560Z,9.80
2023-03-21T00:18:41.829Z,9.80
2023-03-21T00:24:00.746Z,9.80
2023-03-21T00:26:27.837Z,9.90
2023-03-21T00:28:54.778Z,9.90
2023-03-21T00:31:21.755Z,9.80
2023-03-21T00:33:50.055Z,9.90
2023-03-21T00:36:17.429Z,9.90
2023-03-21T00:38:44.443Z,9.90
2023-03-21T00:41:25.974Z,9.90
2023-03-21T00:44:01.624Z,9.90
2023-03-21T00:46:39.778Z,9.90
2023-03-21T00:49:10.178Z,9.90
2023-03-21T00:51:37.098Z,9.90
2023-03-21T00:54:05.686Z,10.00
2023-03-21T00:56:32.974Z,10.00
2023-03-21T00:58:59.985Z,9.90
2023-03-21T01:01:31.875Z,9.90
2023-03-21T01:04:04.731Z,9.90
2023-03-21T01:06:33.110Z,10.00
2023-03-21T01:09:00.048Z,10.00
2023-03-21T01:11:28.867Z,10.00
2023-03-21T01:14:07.333Z,10.00
2023-03-21T01:16:42.440Z,9.90
2023-03-21T01:19:23.885Z,10.00
2023-03-21T01:21:52.269Z,10.00
2023-03-21T01:24:19.310Z,10.00
2023-03-21T01:26:46.293Z,9.90
2023-03-21T01:29:13.240Z,9.90
2023-03-21T01:31:40.190Z,10.00
2023-03-21T01:34:07.769Z,10.00
2023-03-21T01:36:34.881Z,9.90
2023-03-21T01:39:06.807Z,9.90
2023-03-21T01:41:42.860Z,9.90
2023-03-21T01:44:19.057Z,9.90
2023-03-21T01:47:03.989Z,9.90
2023-03-21T01:49:49.662Z,9.90
2023-03-21T01:52:39.018Z,9.90
2023-03-21T01:55:26.687Z,9.90
2023-03-21T01:58:06.347Z,9.90
2023-03-21T02:01:10.815Z,9.90
2023-03-21T02:03:50.936Z,9.90
2023-03-21T02:06:52.399Z,9.90
2023-03-21T02:09:33.524Z,9.90
2023-03-21T02:12:02.081Z,9.90
2023-03-21T02:14:33.201Z,9.80
2023-03-21T02:17:38.092Z,9.90
2023-03-21T02:20:43.666Z,9.90
2023-03-21T02:23:35.115Z,9.90
2023-03-21T02:26:40.884Z,9.90
2023-03-21T02:29:41.697Z,9.90
2023-03-21T02:32:20.318Z,9.90
2023-03-21T02:35:18.718Z,9.90
2023-03-21T02:38:03.995Z,9.90
2023-03-21T02:40:50.446Z,9.90
2023-03-21T02:43:40.345Z,9.90
2023-03-21T02:46:18.616Z,9.90
2023-03-21T02:48:54.329Z,9.90
2023-03-21T02:51:24.173Z,9.90
2023-03-21T02:54:22.196Z,9.90
2023-03-21T02:56:47.056Z,9.90
2023-03-21T02:59:16.512Z,9.90
2023-03-21T03:01:44.339Z,9.90
2023-03-21T03:04:28.603Z,10.00
2023-03-21T03:06:58.459Z,10.00
2023-03-21T03:09:58.891Z,10.00
2023-03-21T03:12:43.092Z,10.10
2023-03-21T03:15:29.331Z,10.10
2023-03-21T03:18:16.140Z,10.10
2023-03-21T03:20:44.455Z,10.20
2023-03-21T03:23:29.743Z,10.10
2023-03-21T03:26:01.208Z,10.10
2023-03-21T03:28:35.420Z,10.10
2023-03-21T03:31:09.778Z,10.10
2023-03-21T03:33:52.296Z,10.20
2023-03-21T03:36:31.596Z,10.10
2023-03-21T03:39:06.738Z,10.10
2023-03-21T03:42:06.093Z,10.00
2023-03-21T03:44:36.941Z,10.00
2023-03-21T03:47:22.912Z,10.00
2023-03-21T03:50:05.594Z,10.00
2023-03-21T03:52:56.046Z,10.10
2023-03-21T03:55:27.299Z,10.10
2023-03-21T03:57:58.479Z,10.00
2023-03-21T04:00:27.163Z,10.10
2023-03-21T04:02:54.425Z,10.10
2023-03-21T04:05:24.443Z,10.10
2023-03-21T04:07:51.565Z,10.10
2023-03-21T04:10:25.440Z,10.10
2023-03-21T04:12:52.566Z,10.00
2023-03-21T04:15:33.342Z,10.10
2023-03-21T04:18:07.793Z,10.10
2023-03-21T04:20:43.159Z,10.10
2023-03-21T04:23:11.320Z,10.10
2023-03-21T04:25:47.515Z,10.10
2023-03-21T04:28:17.964Z,10.10
2023-03-21T04:31:19.128Z,10.00
2023-03-21T04:33:53.087Z,10.00
2023-03-21T04:36:30.699Z,9.90
2023-03-21T04:39:01.611Z,9.70
2023-03-21T04:41:30.304Z,9.60
2023-03-21T04:43:57.644Z,9.50
2023-03-21T04:46:24.647Z,9.50
2023-03-21T04:48:51.564Z,9.40
2023-03-21T04:51:18.474Z,9.40
2023-03-21T04:53:46.943Z,9.50
2023-03-21T04:56:14.502Z,9.60
2023-03-21T04:58:42.465Z,9.60
2023-03-21T05:01:09.882Z,9.50
2023-03-21T05:03:40.019Z,9.60
2023-03-21T05:06:10.789Z,9.60
2023-03-21T05:08:37.832Z,9.60
2023-03-21T05:11:05.602Z,9.60
2023-03-21T05:13:32.532Z,9.60
2023-03-21T05:15:59.459Z,9.50
2023-03-21T05:18:26.976Z,9.60
2023-03-21T05:21:04.540Z,9.50
2023-03-21T05:23:38.246Z,9.60
2023-03-21T05:26:09.686Z,9.60
2023-03-21T05:28:48.084Z,9.60
2023-03-21T05:31:19.002Z,9.60
2023-03-21T05:33:48.754Z,9.60
2023-03-21T05:36:18.521Z,9.50
2023-03-21T05:38:48.309Z,9.50
2023-03-21T05:41:19.288Z,9.50
2023-03-21T05:43:46.983Z,9.60
2023-03-21T05:46:16.094Z,9.60
2023-03-21T05:48:43.329Z,9.60
2023-03-21T05:51:15.902Z,9.70
2023-03-21T05:53:42.827Z,9.70
2023-03-21T05:56:10.887Z,9.70
2023-03-21T05:59:04.352Z,9.70
2023-03-21T06:01:35.404Z,9.80
2023-03-21T06:04:11.940Z,9.80
2023-03-21T06:06:40.592Z,9.80
2023-03-21T06:09:08.587Z,9.80
2023-03-21T06:11:38.964Z,9.90
2023-03-21T06:14:20.994Z,9.90
2023-03-21T06:17:06.071Z,9.90
2023-03-21T06:19:36.295Z,10.00
2023-03-21T06:22:07.741Z,10.10
2023-03-21T06:24:38.286Z,10.20
2023-03-21T06:27:05.662Z,10.40
2023-03-21T06:29:46.403Z,10.40
2023-03-21T06:32:13.669Z,10.40
2023-03-21T06:34:41.094Z,10.40
2023-03-21T06:37:10.056Z,10.40
2023-03-21T06:39:37.669Z,10.40
2023-03-21T06:42:04.761Z,10.40
2023-03-21T06:44:32.090Z,10.30
2023-03-21T06:47:03.392Z,10.30
2023-03-21T06:49:30.882Z,10.30
2023-03-21T06:52:01.233Z,10.30
2023-03-21T06:54:28.428Z,10.20
2023-03-21T06:56:59.293Z,10.20
2023-03-21T06:59:29.839Z,10.20
2023-03-21T07:02:06.940Z,10.20
2023-03-21T07:04:39.402Z,10.20
2023-03-21T07:07:11.551Z,10.30
2023-03-21T07:09:38.756Z,10.30
2023-03-21T07:12:06.646Z,10.40
2023-03-21T07:15:04.371Z,10.50
2023-03-21T07:17:32.554Z,10.50
2023-03-21T07:20:00.013Z,10.40
2023-03-21T07:22:27.119Z,10.40
2023-03-21T07:25:04.439Z,10.30
2023-03-21T07:27:39.691Z,10.20
2023-03-21T07:30:08.967Z,10.00
2023-03-21T07:32:37.992Z,10.00
2023-03-21T07:35:07.518Z,9.90
2023-03-21T07:37:36.381Z,10.00
2023-03-21T07:40:10.716Z,10.00
2023-03-21T07:42:40.508Z,10.00
2023-03-21T07:45:09.380Z,10.00
2023-03-21T07:47:36.686Z,10.00
2023-03-21T07:50:04.614Z,9.90
2023-03-21T07:52:32.207Z,9.90
2023-03-21T07:54:59.187Z,9.90
2023-03-21T07:57:26.281Z,10.00
2023-03-21T07:59:53.329Z,10.00
2023-03-21T08:02:20.216Z,9.90
2023-03-21T08:04:47.155Z,9.90
2023-03-21T08:07:14.409Z,9.90
2023-03-21T08:09:43.135Z,10.00
2023-03-21T08:12:11.237Z,9.90
2023-03-21T08:14:38.485Z,10.00
2023-03-21T08:17:06.452Z,10.10
2023-03-21T08:19:33.416Z,10.10
2023-03-21T08:22:01.231Z,10.10
2023-03-21T08:24:29.032Z,10.10
2023-03-21T08:26:56.116Z,10.10
2023-03-21T08:29:25.069Z,10.10
2023-03-21T08:31:52.098Z,10.20
2023-03-21T08:34:19.623Z,10.30
2023-03-21T08:36:47.204Z,10.10
2023-03-21T08:39:14.187Z,10.20
2023-03-21T08:41:41.180Z,10.10
2023-03-21T08:44:09.763Z,10.20
2023-03-21T08:46:36.929Z,10.20
2023-03-21T08:49:04.054Z,10.20
2023-03-21T08:51:31.857Z,10.30
2023-03-21T08:53:58.874Z,10.40
2023-03-21T08:56:25.822Z,10.30
2023-03-21T08:58:52.785Z,10.30
2023-03-21T09:01:19.786Z,10.30
2023-03-21T09:03:46.822Z,10.30
2023-03-21T09:06:14.332Z,10.40
2023-03-21T09:08:46.441Z,10.40
2023-03-21T09:11:13.845Z,10.50
2023-03-21T09:13:40.854Z,10.30
2023-03-21T09:16:08.718Z,10.30
2023-03-21T09:18:47.104Z,10.30
2023-03-21T09:21:15.959Z,10.40
2023-03-21T09:23:44.907Z,10.50
2023-03-21T09:26:13.942Z,10.60
2023-03-21T09:28:41.194Z,10.50
2023-03-21T09:31:12.330Z,10.70
2023-03-21T09:33:43.268Z,10.80
2023-03-21T09:36:14.213Z,10.80
2023-03-21T09:38:43.113Z,10.70
2023-03-21T09:41:30.636Z,10.90
2023-03-21T09:44:31.066Z,11.30
2023-03-21T09:47:25.127Z,11.20
2023-03-21T09:50:17.227Z,11.30
2023-03-21T09:52:54.078Z,11.50
2023-03-21T09:55:31.075Z,11.50
2023-03-21T09:58:16.957Z,11.40
2023-03-21T10:00:49.435Z,11.30
2023-03-21T10:03:26.245Z,11.40
2023-03-21T10:05:58.647Z,11.30
2023-03-21T10:08:32.215Z,11.20
2023-03-21T10:11:05.240Z,11.30
2023-03-21T10:13:50.382Z,11.20
2023-03-21T10:16:32.951Z,11.20
2023-03-21T10:19:09.868Z,11.20
2023-03-21T10:21:59.882Z,11.20
2023-03-21T10:24:29.673Z,11.30
2023-03-21T10:26:57.517Z,11.30
2023-03-21T10:29:28.747Z,11.20
2023-03-21T10:31:56.382Z,11.20
2023-03-21T10:37:28.517Z,11.20
2023-03-21T10:39:56.270Z,11.20
2023-03-21T10:42:26.361Z,11.20
2023-03-21T10:44:57.358Z,11.20
2023-03-21T10:47:31.394Z,11.00
2023-03-21T10:50:26.759Z,11.10
2023-03-21T10:53:00.570Z,11.10
2023-03-21T10:55:34.011Z,11.10
2023-03-21T10:58:10.921Z,11.00
2023-03-21T11:00:41.434Z,11.10
2023-03-21T11:03:24.874Z,11.00
2023-03-21T11:05:59.303Z,11.20
2023-03-21T11:08:27.459Z,11.30
2023-03-21T11:11:00.876Z,11.20
2023-03-21T11:13:37.205Z,11.30
2023-03-21T11:16:09.170Z,11.20
2023-03-21T11:18:42.488Z,11.20
2023-03-21T11:21:13.440Z,11.20
2023-03-21T11:23:45.527Z,11.10
2023-03-21T11:26:24.067Z,11.10
2023-03-21T11:28:54.326Z,11.20
2023-03-21T11:31:24.756Z,11.20
2023-03-21T11:33:56.969Z,11.30
2023-03-21T11:36:24.202Z,11.30
2023-03-21T11:38:59.946Z,11.50
2023-03-21T11:41:33.773Z,11.50
2023-03-21T11:44:02.564Z,11.70
2023-03-21T11:46:32.336Z,11.50
2023-03-21T11:49:01.473Z,11.60
2023-03-21T11:51:48.305Z,11.60
2023-03-21T11:54:19.652Z,11.50
2023-03-21T11:56:54.173Z,11.30
2023-03-21T11:59:32.865Z,11.30
2023-03-21T12:02:30.718Z,11.20
2023-03-21T12:05:07.944Z,11.30
2023-03-21T12:07:41.511Z,11.20
2023-03-21T12:10:33.435Z,11.30
2023-03-21T12:13:21.689Z,11.40
2023-03-21T12:15:57.881Z,11.40
2023-03-21T12:18:49.421Z,11.50
2023-03-21T12:21:34.865Z,11.60
2023-03-21T12:24:07.402Z,11.60
2023-03-21T12:27:30.073Z,12.00
2023-03-21T12:29:59.727Z,12.00
2023-03-21T12:32:29.311Z,12.10
2023-03-21T12:35:19.262Z,12.20
2023-03-21T12:38:08.079Z,12.20
2023-03-21T12:40:59.590Z,12.20
2023-03-21T12:43:47.463Z,12.10
2023-03-21T12:46:41.089Z,12.10
2023-03-21T12:49:09.887Z,12.20
2023-03-21T12:51:42.427Z,12.40
2023-03-21T12:54:24.170Z,12.40
2023-03-21T12:56:59.117Z,12.50
2023-03-21T12:59:39.697Z,12.50
2023-03-21T13:02:26.346Z,12.80
2023-03-21T13:05:04.852Z,13.00
2023-03-21T13:07:36.133Z,12.70
2023-03-21T13:10:13.759Z,12.70
2023-03-21T13:13:10.159Z,12.80
2023-03-21T13:15:51.066Z,12.90
2023-03-21T13:18:46.471Z,12.80
2023-03-21T13:21:13.322Z,12.80
2023-03-21T13:23:40.613Z,12.90
2023-03-21T13:26:12.508Z,13.00
2023-03-21T13:28:41.042Z,13.20
2023-03-21T13:31:20.935Z,13.10
2023-03-21T13:33:51.086Z,12.90
2023-03-21T13:36:28.098Z,13.00
2023-03-21T13:39:01.085Z,13.00
2023-03-21T13:41:39.508Z,13.10
2023-03-21T13:44:19.034Z,13.00
2023-03-21T13:47:27.334Z,13.00
2023-03-21T13:50:35.655Z,13.00
2023-03-21T13:53:19.408Z,12.80
2023-03-21T13:55:49.286Z,12.70
2023-03-21T13:58:36.948Z,12.90
2023-03-21T14:01:33.144Z,12.80
2023-03-21T14:04:24.174Z,12.80
2023-03-21T14:07:07.083Z,12.90
2023-03-21T14:09:39.067Z,12.90
2023-03-21T14:12:11.535Z,12.80
2023-03-21T14:14:52.378Z,12.80
2023-03-21T14:17:25.436Z,12.70
2023-03-21T14:19:54.714Z,12.70
2023-03-21T14:22:21.783Z,12.70
2023-03-21T14:25:00.437Z,12.60
2023-03-21T14:27:33.203Z,12.60
2023-03-21T14:30:02.009Z,12.50
2023-03-21T14:32:30.885Z,12.50
2023-03-21T14:35:01.124Z,12.60
2023-03-21T14:37:31.555Z,12.70
2023-03-21T14:40:01.038Z,12.50
2023-03-21T14:42:28.806Z,12.60
2023-03-21T14:45:00.396Z,12.50
2023-03-21T14:47:29.871Z,12.40
2023-03-21T14:49:58.181Z,12.50
2023-03-21T14:52:30.314Z,12.40
2023-03-21T14:54:57.958Z,12.50
2023-03-21T14:57:31.839Z,12.50
2023-03-21T15:00:02.378Z,12.50
2023-03-21T15:02:36.658Z,12.50
2023-03-21T15:05:19.130Z,12.60
2023-03-21T15:07:55.243Z,12.50
2023-03-21T15:10:23.208Z,12.50
2023-03-21T15:12:55.761Z,12.50
2023-03-21T15:15:27.319Z,12.40
2023-03-21T15:17:58.285Z,12.60
2023-03-21T15:20:28.716Z,12.70
2023-03-21T15:23:02.391Z,12.70
2023-03-21T15:25:33.006Z,12.50
2023-03-21T15:28:01.210Z,12.40
2023-03-21T15:30:30.587Z,12.50
2023-03-21T15:32:59.520Z,12.70
2023-03-21T15:35:32.595Z,12.70
2023-03-21T15:38:00.193Z,12.60
2023-03-21T15:40:30.508Z,12.60
2023-03-21T15:43:14.536Z,12.60
2023-03-21T15:45:56.475Z,12.50
2023-03-21T15:48:28.858Z,12.50
2023-03-21T15:50:55.994Z,12.60
2023-03-21T15:53:23.868Z,12.50
2023-03-21T15:55:53.207Z,12.40
2023-03-21T15:58:23.985Z,12.40
2023-03-21T16:00:56.726Z,12.50
2023-03-21T16:03:32.338Z,12.40
2023-03-21T16:06:08.299Z,12.30
2023-03-21T16:08:42.506Z,12.40
2023-03-21T16:11:20.951Z,12.50
2023-03-21T16:13:48.367Z,12.60
2023-03-21T16:16:22.277Z,12.70
2023-03-21T16:18:49.493Z,12.90
2023-03-21T16:21:18.682Z,12.90
2023-03-21T16:23:46.689Z,13.00
2023-03-21T16:26:16.561Z,12.90
2023-03-21T16:28:44.876Z,12.80
2023-03-21T16:31:18.329Z,12.70
2023-03-21T16:33:46.448Z,12.70
2023-03-21T16:36:17.748Z,12.70
2023-03-21T16:38:52.788Z,12.70
2023-03-21T16:41:20.838Z,12.70
2023-03-21T16:43:48.329Z,12.70
2023-03-21T16:46:21.267Z,12.70
2023-03-21T16:48:50.896Z,12.60
2023-03-21T16:51:36.620Z,12.60
2023-03-21T16:54:03.916Z,12.50
2023-03-21T16:56:37.983Z,12.50
2023-03-21T16:59:06.047Z,12.60
2023-03-21T17:01:33.074Z,12.70
2023-03-21T17:04:00.329Z,12.60
2023-03-21T17:06:29.680Z,12.60
2023-03-21T17:08:58.520Z,12.60
2023-03-21T17:11:27.176Z,12.50
2023-03-21T17:13:55.015Z,12.40
2023-03-21T17:16:26.556Z,12.30
2023-03-21T17:18:54.602Z,12.20
2023-03-21T17:21:23.784Z,12.10
2023-03-21T17:23:51.226Z,12.00
2023-03-21T17:26:27.338Z,11.90
2023-03-21T17:28:56.871Z,11.80
2023-03-21T17:31:25.606Z,11.70
2023-03-21T17:33:52.535Z,11.60
2023-03-21T17:36:46.644Z,11.50
2023-03-21T17:39:23.832Z,11.50
2023-03-21T17:41:54.567Z,11.60
2023-03-21T17:44:21.723Z,11.70
2023-03-21T17:46:51.613Z,11.70
2023-03-21T17:49:19.877Z,11.70
2023-03-21T17:51:47.080Z,11.80
2023-03-21T17:54:14.259Z,11.80
2023-03-21T17:56:42.111Z,11.80
2023-03-21T17:59:13.336Z,11.80
2023-03-21T18:01:40.526Z,11.80
2023-03-21T18:04:07.467Z,11.80
2023-03-21T18:06:35.188Z,11.80
2023-03-21T18:09:07.041Z,11.80
2023-03-21T18:11:34.230Z,11.70
2023-03-21T18:14:14.998Z,11.70
2023-03-21T18:16:43.061Z,11.80
2023-03-21T18:19:13.155Z,11.80
2023-03-21T18:21:45.464Z,11.70
2023-03-21T18:24:14.756Z,11.70
2023-03-21T18:26:42.989Z,11.70
2023-03-21T18:32:06.382Z,11.70
2023-03-21T18:34:36.302Z,11.70
2023-03-21T18:37:04.351Z,11.70
2023-03-21T18:39:33.194Z,11.70
2023-03-21T18:42:03.842Z,11.70
2023-03-21T18:44:37.294Z,11.70
2023-03-21T18:47:06.457Z,11.70
2023-03-21T18:52:20.933Z,11.70
2023-03-21T18:54:48.044Z,11.70
2023-03-21T18:57:35.613Z,11.70
2023-03-21T19:00:11.162Z,11.70
2023-03-21T19:02:43.270Z,11.70
2023-03-21T19:05:12.916Z,11.70
2023-03-21T19:07:39.840Z,11.70
2023-03-21T19:10:17.479Z,11.70
2023-03-21T19:12:44.893Z,11.60
2023-03-21T19:15:12.002Z,11.50
2023-03-21T19:20:25.995Z,11.40
2023-03-21T19:22:53.026Z,11.50
2023-03-21T19:25:20.027Z,11.50
2023-03-21T19:27:46.933Z,11.50
2023-03-21T19:30:15.578Z,11.40
2023-03-21T19:32:43.804Z,11.50
2023-03-21T19:35:11.431Z,11.40
2023-03-21T19:37:38.347Z,11.40
2023-03-21T19:40:07.344Z,11.40
2023-03-21T19:42:36.343Z,11.40
2023-03-21T19:45:05.459Z,11.40
2023-03-21T19:47:32.796Z,11.40
2023-03-21T19:51:26.467Z,11.50
2023-03-21T19:52:46.954Z,11.50
2023-03-21T19:55:14.967Z,11.50
2023-03-21T19:57:42.018Z,11.50
2023-03-21T20:00:11.372Z,11.50
2023-03-21T20:02:38.716Z,11.50
2023-03-21T20:05:07.043Z,11.50
2023-03-21T20:07:34.020Z,11.50
2023-03-21T20:10:01.228Z,11.50
2023-03-21T20:12:28.716Z,11.50
2023-03-21T20:15:10.223Z,11.50
2023-03-21T20:17:39.854Z,11.40
2023-03-21T20:20:10.105Z,11.30
2023-03-21T20:23:05.297Z,11.30
2023-03-21T20:25:24.993Z,11.30
2023-03-21T20:28:10.944Z,11.30
2023-03-21T20:30:44.355Z,11.30
2023-03-21T20:33:11.509Z,11.20
2023-03-21T20:36:28.607Z,11.20
2023-03-21T20:38:26.126Z,11.20
2023-03-21T20:40:53.070Z,11.20
2023-03-21T20:44:13.989Z,11.10
2023-03-21T20:46:09.756Z,11.00
2023-03-21T20:48:38.417Z,11.00
2023-03-21T20:51:59.981Z,10.90
2023-03-21T20:53:55.828Z,10.90
2023-03-21T20:56:22.894Z,10.90
2023-03-21T20:59:07.917Z,10.90
2023-03-21T21:01:38.482Z,10.90
2023-03-21T21:04:05.863Z,10.90
2023-03-21T21:06:32.981Z,10.90
2023-03-21T21:09:00.323Z,11.00
2023-03-21T21:12:04.956Z,11.00
2023-03-21T21:14:15.972Z,11.00
2023-03-21T21:16:42.906Z,11.00
2023-03-21T21:19:10.660Z,11.00
2023-03-21T21:21:37.899Z,11.00
2023-03-21T21:24:07.427Z,11.10
2023-03-21T21:26:35.352Z,11.00
2023-03-21T21:29:02.652Z,11.00
2023-03-21T21:31:29.691Z,11.00
2023-03-21T21:33:56.564Z,11.00
2023-03-21T21:36:23.567Z,11.00
2023-03-21T21:38:50.583Z,11.00
2023-03-21T21:41:20.047Z,11.10
2023-03-21T21:43:47.891Z,11.00
2023-03-21T21:46:14.913Z,11.00
2023-03-21T21:48:43.023Z,11.00
2023-03-21T21:51:10.475Z,11.00
2023-03-21T21:53:38.906Z,10.90
2023-03-21T21:56:08.985Z,10.90
2023-03-21T21:58:46.034Z,10.90
2023-03-21T22:01:13.187Z,10.70
2023-03-21T22:03:46.040Z,10.70
2023-03-21T22:06:13.655Z,10.80
2023-03-21T22:08:47.001Z,10.80
2023-03-21T22:11:14.717Z,10.70
2023-03-21T22:13:43.563Z,10.80
2023-03-21T22:16:11.435Z,10.80
2023-03-21T22:18:38.745Z,10.70
2023-03-21T22:21:06.710Z,10.80
2023-03-21T22:23:33.701Z,10.80
2023-03-21T22:26:00.973Z,10.80
2023-03-21T22:28:28.146Z,10.80
2023-03-21T22:30:55.990Z,10.80
2023-03-21T22:33:25.894Z,10.80
2023-03-21T22:35:53.192Z,10.80
2023-03-21T22:38:24.195Z,10.80
2023-03-21T22:40:59.852Z,10.80
2023-03-21T22:43:27.526Z,10.80
2023-03-21T22:45:55.070Z,10.90
2023-03-21T22:48:22.322Z,10.90
2023-03-21T22:50:49.295Z,10.90
2023-03-21T22:53:16.293Z,10.90
2023-03-21T22:55:43.227Z,10.90
2023-03-21T22:58:10.245Z,10.90
2023-03-21T23:00:37.615Z,10.80
2023-03-21T23:03:04.783Z,10.80
2023-03-21T23:05:31.968Z,10.80
2023-03-21T23:07:58.873Z,10.70
2023-03-21T23:10:25.911Z,10.60
2023-03-21T23:12:52.867Z,10.60
2023-03-21T23:15:19.837Z,10.60
2023-03-21T23:17:46.881Z,10.60
2023-03-21T23:20:14.069Z,10.60
2023-03-21T23:22:41.667Z,10.60
2023-03-21T23:25:09.120Z,10.70
2023-03-21T23:27:36.441Z,10.70
2023-03-21T23:30:06.391Z,10.70
2023-03-21T23:32:33.798Z,10.70
2023-03-21T23:35:00.846Z,10.70
2023-03-21T23:37:30.007Z,10.70
2023-03-21T23:39:57.176Z,10.80
2023-03-21T23:42:25.491Z,10.80
2023-03-21T23:44:52.444Z,10.70
2023-03-21T23:47:19.371Z,10.70
2023-03-21T23:49:49.142Z,10.70
2023-03-21T23:52:16.246Z,10.60
2023-03-21T23:54:43.348Z,10.60
2023-03-21T23:57:11.044Z,10.70
2023-03-21T23:59:37.953Z,10.80
